Vers la page d'accueil de NAV CANADA Ouverture d'une nouvelle session Chercher sur le site AWWS Clause de non-reponsabilité To the equivalent English page Trucs et astuces FAQ Quoi de neuf sur le site Vers la section Prévisions et observations / NOTAM Vers le site web pour <<Déposer un plan de vol>> Publications et liens importants Mise à jour du profil d'usager Numéros de téléphone des FIC Mes données météo personnelles Données météo de route Données météo régionales Données météo locales Vers la section Prévisions et observations / NOTAM
Requête générée le 2019/02/18 à 15:24:50 UTC. L'information météorologique disponible à ce moment est affichée.

METAR/TAF

Si vous notez des différences entre le METAR/TAF codé et le METAR/TAF en langage clair, veuillez utiliser la version codée. Les bulletins LWIS ne sont pas décodés en langage clair.

MONTREAL/PIERRE-ELLIOTT-TRUDEAU INTL/QC    

METAR CYUL 181500Z 03016KT 15SM SCT088 BKN130 BKN210 M12/M18 A3002 RMK AS3AC2CI SLP170=
METAR
LIEU
CYUL - MONTREAL/PIERRE-ELLIOTT-TRUDEAU INT
DATE - HEURE
18 FEVRIER 2019 - 1500 UTC
VENT
30 VRAIS @ 16  NOEUDS
VISIBILITE
15 MILLES TERR.
PORTEE VISUELLE DE PISTE
METEO
NEBULOSITE
NUAGES EPARS (3/8 - 4/8) 8800  PI
NUAGES FRAGMENTES (5/8 - 7/8) 13000  PI
NUAGES FRAGMENTES (5/8 - 7/8) 21000  PI
TEMP / PT DE ROSEE
-12 C / -18 C
ALTIMETRE
30.02 PO HG
TEMPS RECENT
CISAILLEMENT

METAR CYUL 181400Z 02019G25KT 15SM SCT080 OVC120 M12/M17 A3001 RMK AC3AS5 SLP16
METAR
LIEU
CYUL - MONTREAL/PIERRE-ELLIOTT-TRUDEAU INT
DATE - HEURE
18 FEVRIER 2019 - 1400 UTC
VENT
20 VRAIS @ 19  NOEUDS
RAFALES
25 NOEUDS
VISIBILITE
15 MILLES TERR.
PORTEE VISUELLE DE PISTE
METEO
NEBULOSITE
NUAGES EPARS (3/8 - 4/8) 8000  PI
CIEL COUVERT 12000  PI
TEMP / PT DE ROSEE
-12 C / -17 C
ALTIMETRE
30.01 PO HG
TEMPS RECENT
CISAILLEMENT

METAR CYUL 181300Z 02019KT 15SM BKN070 OVC090 M13/M18 A3001 RMK AC7AC1 SLP166=
METAR
LIEU
CYUL - MONTREAL/PIERRE-ELLIOTT-TRUDEAU INT
DATE - HEURE
18 FEVRIER 2019 - 1300 UTC
VENT
20 VRAIS @ 19  NOEUDS
VISIBILITE
15 MILLES TERR.
PORTEE VISUELLE DE PISTE
METEO
NEBULOSITE
NUAGES FRAGMENTES (5/8 - 7/8) 7000  PI
CIEL COUVERT 9000  PI
TEMP / PT DE ROSEE
-13 C / -18 C
ALTIMETRE
30.01 PO HG
TEMPS RECENT
CISAILLEMENT

TAF CYUL 181438Z 1815/1912 02015G25KT P6SM BKN120 BECMG 1817/1819 33012KT FM182100 28010KT P6SM BKN160 BECMG 1822/1824 FEW050 FM190300 29010KT P6SM SKC RMK NXT FCST BY 181800Z=
TAF
LIEU

CYUL - MONTREAL/PIERRE-ELLIOTT-TRUDEAU INTL/QC
VALIDITE [UTC]
18 FEB - 1438 à
19 FEB - 1200
 
PERIODES
[UTC]
VENT
[DEGRES VRAIS]
VISIBILITE
[MILLES TERR.]
METEO
NEBULOSITE
[PIEDS AGL]
 
18 FEB - 1500 à
18 FEB - 2100
20 @ 15 NOEUDS
RAFALES 25 NOEUDS
6+
---
12000 FRAGMENTES
CHANGEMENTS GRADUELS
18 FEB - 1700 à
18 FEB - 1900
330 @ 12 NOEUDS
 
 
 
 
18 FEB - 2100 à
19 FEB - 0300
280 @ 10 NOEUDS
6+
---
16000 FRAGMENTES
CHANGEMENTS GRADUELS
18 FEB - 2200 à
19 FEB - 0000
 
 
 
5000 QUELQUES
 
19 FEB - 0300 à
19 FEB - 1200
290 @ 10 NOEUDS
6+
---
CIEL DEGAGE
REMARQUES
LA PREVISION SUIVANTE SERA EMISE POUR 1800 UTC LE 18


Votre heure Heure UTC
Données météorologiques fournies par Environnement Canada et NAV CANADA